Wednesday, October 17, 2018, 12:51 PM EDT
Back to Local

KBML, Berlin Municipal Airport

Location: Milan, NH, United States Lat: 44.583
Local Time: 12:51 PM EDT (16:51 GMT) Lon: -71.183
Time Zone: US/Eastern Elev: 1158 ft

Show me the last for .
Show Decoded

2018-10-17 11:52 METAR KBML 171552Z AUTO 22011KT 10SM BKN036 10/03 A2969 RMK AO2 SLP066 T01000033
                 =
2018-10-17 10:52 METAR KBML 171452Z AUTO 22008KT 10SM BKN033 BKN042 08/03 A2972 RMK AO2 SLP076
                 60001 T00830033 58018 =
2018-10-17 09:52 METAR KBML 171352Z AUTO 21008KT 10SM FEW024 BKN037 OVC110 07/04 A2975 RMK AO2
                 RAE20 SLP086 P0000 T00720039 =
2018-10-17 08:52 METAR KBML 171252Z AUTO 22005KT 10SM -RA BKN045 OVC055 06/03 A2977 RMK AO2
                 SLP094 P0001 T00560033 =
2018-10-17 07:52 METAR KBML 171152Z AUTO 21005KT 8SM -RA FEW028 OVC033 05/03 A2978 RMK AO2
                 RAB06FZRAE06 SLP095 P0002 60002 70002 I1000 I6000 T00500028 10056 21033 58006 =
2018-10-17 07:50 METAR KBML 171150Z AUTO 22006KT 7SM -RA OVC033 05/03 A2978 RMK AO2 RAB06FZRAE06
                 P0002 I1000 =
2018-10-17 07:40 METAR KBML 171140Z AUTO 21006KT 6SM -RA BR BKN029 OVC038 05/03 A2978 RMK AO2
                 RAB06FZRAE06 P0002 I1000 T00500028 =
2018-10-17 07:12 METAR KBML 171112Z AUTO 00000KT 10SM -RA FEW036 OVC060 02/01 A2979 RMK AO2
                 RAB06FZRAE06 P0000 I1000 T00170006 =
2018-10-17 06:52 METAR KBML 171052Z AUTO 00000KT 10SM -FZRA FEW032 SCT046 OVC060 01/01 A2980 RMK
                 AO2 RAB07E41FZRAB41 SLP102 P0000 I1000 T00110006 =
2018-10-17 06:47 METAR KBML 171047Z AUTO 36003KT 10SM -FZRA FEW032 BKN048 OVC055 01/00 A2980 RMK
                 AO2 RAB07E41FZRAB41 P0000 I1000 =
2018-10-17 05:52 METAR KBML 170952Z AUTO 00000KT 10SM BKN060 OVC075 01/M01 A2981 RMK AO2 SLP106
                 T00061006 =
2018-10-17 04:52 METAR KBML 170852Z AUTO 00000KT 10SM BKN044 OVC070 00/M01 A2983 RMK AO2 SLP113
                 I3000 T00001011 56017 =
2018-10-17 03:52 METAR KBML 170752Z AUTO 00000KT 10SM BKN040 M02/M03 A2985 RMK AO2 SLP117
                 T10171028 =
2018-10-17 02:52 METAR KBML 170652Z AUTO 00000KT 10SM CLR M02/M03 A2986 RMK AO2 SLP123 I1000
                 T10221033 =
2018-10-17 01:52 METAR KBML 170552Z AUTO 00000KT 10SM FEW046 M02/M03 A2988 RMK AO2 SLP131 I1000
                 I6000 T10221033 10006 21028 58013 =
2018-10-16 23:52 METAR KBML 170352Z AUTO 00000KT 10SM CLR M03/M03 A2992 RMK AO2 SLP143 I1000
                 T10281033 =
2018-10-16 22:52 METAR KBML 170252Z AUTO 14003KT 10SM FEW048 M02/M03 A2992 RMK AO2 SLP145 I1000
                 I3000 T10221033 51001 =
2018-10-16 21:52 METAR KBML 170152Z AUTO 00000KT 10SM CLR M02/M03 A2992 RMK AO2 SLP145 T10171028
                 =
2018-10-16 20:52 METAR KBML 170052Z AUTO 00000KT 10SM BKN050 00/M02 A2993 RMK AO2 SLP146
                 T00001017 =
2018-10-16 19:52 METAR KBML 162352Z AUTO 00000KT 10SM FEW055 M01/M02 A2992 RMK AO2 SLP144
                 T10061017 10100 21006 58001 =
2018-10-16 18:52 METAR KBML 162252Z AUTO 00000KT 10SM CLR 02/M01 A2992 RMK AO2 SLP143 T00221011 =
2018-10-16 17:52 METAR KBML 162152Z AUTO VRB03KT 10SM CLR 06/M02 A2992 RMK AO2 SLP142 T00611022 =
2018-10-16 16:52 METAR KBML 162052Z AUTO 32007G16KT 270V340 10SM OVC047 07/M03 A2992 RMK AO2
                 SLP142 T00721028 53006 =
2018-10-16 15:52 METAR KBML 161952Z AUTO VRB05G18KT 10SM BKN048 BKN055 08/M03 A2991 RMK AO2
                 SLP137 T00831028 =
2018-10-16 14:52 METAR KBML 161852Z AUTO VRB05G15KT 10SM CLR 09/M02 A2990 RMK AO2 SLP132
                 T00941017 =
2018-10-16 13:52 METAR KBML 161752Z AUTO VRB06G20KT 10SM FEW047 09/M02 A2990 RMK AO2 SLP134
                 T00891022 10094 20044 58003 =
2018-10-16 12:52 METAR KBML 161652Z AUTO 29012G25KT 250V320 10SM CLR 08/M02 A2992 RMK AO2 SLP139
                 T00831022 =

Support USWX by starting your Amazon purchase here.